createdAt,value
2022-10-26T00:01:21.941Z,98.44
2022-10-26T00:03:51.422Z,98.53
2022-10-26T00:06:20.373Z,98.67
2022-10-26T00:08:49.879Z,98.61
2022-10-26T00:11:18.628Z,98.77
2022-10-26T00:13:47.355Z,98.70
2022-10-26T00:16:17.127Z,98.83
2022-10-26T00:18:45.018Z,98.98
2022-10-26T00:21:14.614Z,99.00
2022-10-26T00:23:42.512Z,99.12
2022-10-26T00:26:10.668Z,99.10
2022-10-26T00:28:38.677Z,98.99
2022-10-26T00:31:08.061Z,99.17
2022-10-26T00:33:36.177Z,99.05
2022-10-26T00:36:04.147Z,99.07
2022-10-26T00:38:33.409Z,98.95
2022-10-26T00:41:01.506Z,98.90
2022-10-26T00:43:36.302Z,98.69
2022-10-26T00:46:07.251Z,98.63
2022-10-26T00:48:38.228Z,98.56
2022-10-26T00:51:09.596Z,98.35
2022-10-26T00:53:40.120Z,98.34
2022-10-26T00:56:08.483Z,98.13
2022-10-26T00:58:36.901Z,97.72
2022-10-26T01:01:04.888Z,97.40
2022-10-26T01:03:33.983Z,96.98
2022-10-26T01:06:03.813Z,96.60
2022-10-26T01:08:32.046Z,96.28
2022-10-26T01:11:01.609Z,96.20
2022-10-26T01:13:31.978Z,95.59
2022-10-26T01:16:05.972Z,95.78
2022-10-26T01:18:40.574Z,95.83
2022-10-26T01:21:26.276Z,95.98
2022-10-26T01:24:04.325Z,95.57
2022-10-26T01:26:47.633Z,95.33
2022-10-26T01:29:25.452Z,95.08
2022-10-26T01:31:57.924Z,94.98
2022-10-26T01:34:28.997Z,94.93
2022-10-26T01:36:58.852Z,94.93
2022-10-26T01:39:30.927Z,94.84
2022-10-26T01:42:00.749Z,94.24
2022-10-26T01:44:31.989Z,93.80
2022-10-26T01:47:02.572Z,93.33
2022-10-26T01:49:33.593Z,93.05
2022-10-26T01:52:01.570Z,92.54
2022-10-26T01:54:29.657Z,91.75
2022-10-26T01:57:02.206Z,91.56
2022-10-26T01:59:35.309Z,91.34
2022-10-26T02:02:24.339Z,91.17
2022-10-26T02:05:02.587Z,90.53
2022-10-26T02:07:34.694Z,90.67
2022-10-26T02:10:07.680Z,90.88
2022-10-26T02:12:39.678Z,90.79
2022-10-26T02:15:09.804Z,90.34
2022-10-26T02:17:43.973Z,90.60
2022-10-26T02:20:18.208Z,89.95
2022-10-26T02:22:47.665Z,89.97
2022-10-26T02:25:18.555Z,89.84
2022-10-26T02:27:50.544Z,89.70
2022-10-26T02:30:19.138Z,89.90
2022-10-26T02:32:49.319Z,89.67
2022-10-26T02:35:21.998Z,89.84
2022-10-26T02:37:52.028Z,89.87
2022-10-26T02:40:21.825Z,90.03
2022-10-26T02:42:51.840Z,89.78
2022-10-26T02:45:22.335Z,90.01
2022-10-26T02:47:50.796Z,90.00
2022-10-26T02:50:21.881Z,90.14
2022-10-26T02:52:55.674Z,90.19
2022-10-26T02:55:26.114Z,89.96
2022-10-26T02:57:56.897Z,90.02
2022-10-26T03:00:24.920Z,90.04
2022-10-26T03:02:55.087Z,90.34
2022-10-26T03:05:25.894Z,89.97
2022-10-26T03:07:54.125Z,90.16
2022-10-26T03:10:22.454Z,90.02
2022-10-26T03:12:50.852Z,90.16
2022-10-26T03:15:18.914Z,89.81
2022-10-26T03:17:47.005Z,90.18
2022-10-26T03:20:15.036Z,90.06
2022-10-26T03:22:44.209Z,90.08
2022-10-26T03:25:12.301Z,90.24
2022-10-26T03:27:40.106Z,89.95
2022-10-26T03:30:08.693Z,90.42
2022-10-26T03:32:36.517Z,90.39
2022-10-26T03:35:04.529Z,90.46
2022-10-26T03:37:32.582Z,90.40
2022-10-26T03:40:01.867Z,90.42
2022-10-26T03:42:29.818Z,90.41
2022-10-26T03:44:57.711Z,90.33
2022-10-26T03:47:25.505Z,90.63
2022-10-26T03:49:53.612Z,90.46
2022-10-26T03:52:21.552Z,90.05
2022-10-26T03:54:49.479Z,90.11
2022-10-26T03:57:18.743Z,89.21
2022-10-26T03:59:46.785Z,89.44
2022-10-26T04:02:15.190Z,89.53
2022-10-26T04:04:43.182Z,89.35
2022-10-26T04:07:11.766Z,89.19
2022-10-26T04:09:42.001Z,89.42
2022-10-26T04:12:09.834Z,89.32
2022-10-26T04:14:39.157Z,89.48
2022-10-26T04:17:07.034Z,89.18
2022-10-26T04:19:34.927Z,89.26
2022-10-26T04:22:02.886Z,89.07
2022-10-26T04:24:30.741Z,89.37
2022-10-26T04:26:58.836Z,89.22
2022-10-26T04:29:26.706Z,89.82
2022-10-26T04:31:56.300Z,89.65
2022-10-26T04:34:24.469Z,89.38
2022-10-26T04:36:52.413Z,89.51
2022-10-26T04:39:20.279Z,89.50
2022-10-26T04:41:48.191Z,89.63
2022-10-26T04:44:18.573Z,89.79
2022-10-26T04:46:46.547Z,89.38
2022-10-26T04:49:15.810Z,89.02
2022-10-26T04:51:43.670Z,89.51
2022-10-26T04:54:11.616Z,90.03
2022-10-26T04:56:39.598Z,90.13
2022-10-26T04:59:07.493Z,90.52
2022-10-26T05:01:35.516Z,90.87
2022-10-26T05:04:03.617Z,91.30
2022-10-26T05:06:32.956Z,91.29
2022-10-26T05:09:00.945Z,91.37
2022-10-26T05:11:28.866Z,91.32
2022-10-26T05:13:56.678Z,91.20
2022-10-26T05:16:24.526Z,91.08
2022-10-26T05:18:53.368Z,91.40
2022-10-26T05:21:21.665Z,91.33
2022-10-26T05:23:55.201Z,91.15
2022-10-26T05:26:24.151Z,91.54
2022-10-26T05:28:52.608Z,91.45
2022-10-26T05:31:20.747Z,91.59
2022-10-26T05:33:50.254Z,91.80
2022-10-26T05:36:21.608Z,91.99
2022-10-26T05:38:49.722Z,92.12
2022-10-26T05:41:18.927Z,92.10
2022-10-26T05:43:48.159Z,92.27
2022-10-26T05:46:16.315Z,92.52
2022-10-26T05:48:46.928Z,92.20
2022-10-26T05:51:28.143Z,92.17
2022-10-26T05:53:58.345Z,92.10
2022-10-26T05:56:36.424Z,91.83
2022-10-26T05:59:04.907Z,92.15
2022-10-26T06:01:38.243Z,92.03
2022-10-26T06:04:18.603Z,92.43
2022-10-26T06:06:50.806Z,92.50
2022-10-26T06:09:21.240Z,92.18
2022-10-26T06:11:51.042Z,91.88
2022-10-26T06:14:19.665Z,92.14
2022-10-26T06:16:58.186Z,92.40
2022-10-26T06:19:33.210Z,92.95
2022-10-26T06:22:09.204Z,93.28
2022-10-26T06:24:42.042Z,93.17
2022-10-26T06:27:19.522Z,93.53
2022-10-26T06:29:53.328Z,93.19
2022-10-26T06:32:24.119Z,93.23
2022-10-26T06:34:53.608Z,92.84
2022-10-26T06:37:22.571Z,92.05
2022-10-26T06:39:53.977Z,90.77
2022-10-26T06:42:24.588Z,90.53
2022-10-26T06:44:52.842Z,90.16
2022-10-26T06:47:23.788Z,89.42
2022-10-26T06:49:58.468Z,89.16
2022-10-26T06:52:30.630Z,89.34
2022-10-26T06:54:59.215Z,88.78
2022-10-26T06:57:29.765Z,88.26
2022-10-26T06:59:58.607Z,87.85
2022-10-26T07:02:29.005Z,86.11
2022-10-26T07:04:57.977Z,86.05
2022-10-26T07:07:31.087Z,85.28
2022-10-26T07:10:04.346Z,85.32
2022-10-26T07:12:38.711Z,85.12
2022-10-26T07:17:43.374Z,84.67
2022-10-26T07:20:11.986Z,84.32
2022-10-26T07:22:40.128Z,84.14
2022-10-26T07:25:08.995Z,84.02
2022-10-26T07:27:38.454Z,83.96
2022-10-26T07:30:09.645Z,83.55
2022-10-26T07:32:38.021Z,83.13
2022-10-26T07:35:06.361Z,82.53
2022-10-26T07:37:34.869Z,82.13
2022-10-26T07:40:06.450Z,81.89
2022-10-26T07:42:36.620Z,80.90
2022-10-26T07:45:07.043Z,80.08
2022-10-26T07:47:35.039Z,78.81
2022-10-26T07:50:03.426Z,78.12
2022-10-26T07:52:31.387Z,76.71
2022-10-26T07:54:59.552Z,75.59
2022-10-26T07:57:27.584Z,72.80
2022-10-26T07:59:55.896Z,71.23
2022-10-26T08:02:25.137Z,68.29
2022-10-26T08:04:52.957Z,67.56
2022-10-26T08:07:21.642Z,62.98
2022-10-26T08:09:49.575Z,54.57
2022-10-26T08:12:18.786Z,46.16
2022-10-26T08:14:47.051Z,37.97
2022-10-26T08:17:15.590Z,35.72
2022-10-26T08:19:44.998Z,32.55
2022-10-26T08:24:46.887Z,28.08
2022-10-26T08:27:15.593Z,30.64
2022-10-26T08:29:52.210Z,32.39
2022-10-26T08:32:20.135Z,31.59
2022-10-26T08:34:49.464Z,29.92
2022-10-26T08:37:17.539Z,29.01
2022-10-26T08:39:48.105Z,28.39
2022-10-26T08:42:20.786Z,29.23
2022-10-26T08:44:50.110Z,28.92
2022-10-26T08:47:20.640Z,28.32
2022-10-26T08:49:53.918Z,28.69
2022-10-26T08:52:25.283Z,28.29
2022-10-26T08:54:55.211Z,27.43
2022-10-26T08:57:26.560Z,28.91
2022-10-26T08:59:57.565Z,26.84
2022-10-26T09:02:26.124Z,26.23
2022-10-26T09:04:56.103Z,25.26
2022-10-26T09:07:38.871Z,24.00
2022-10-26T09:10:14.237Z,25.81
2022-10-26T09:12:47.270Z,26.80
2022-10-26T09:15:21.688Z,26.88
2022-10-26T09:17:57.988Z,27.80
2022-10-26T09:20:42.567Z,27.81
2022-10-26T09:23:16.368Z,26.33
2022-10-26T09:25:46.114Z,28.33
2022-10-26T09:28:17.155Z,28.83
2022-10-26T09:30:45.614Z,27.80
2022-10-26T09:33:16.540Z,28.11
2022-10-26T09:35:49.838Z,27.14
2022-10-26T09:38:21.684Z,28.88
2022-10-26T09:40:54.183Z,25.67
2022-10-26T09:43:26.205Z,25.31
2022-10-26T09:45:54.766Z,25.39
2022-10-26T09:48:26.512Z,27.44
2022-10-26T09:51:01.999Z,26.94
2022-10-26T09:53:32.706Z,24.82
2022-10-26T09:56:03.279Z,22.29
2022-10-26T09:58:32.651Z,22.04
2022-10-26T10:01:02.903Z,21.09
2022-10-26T10:03:31.916Z,22.21
2022-10-26T10:09:11.279Z,24.17
2022-10-26T10:11:40.289Z,25.66
2022-10-26T10:14:09.887Z,27.01
2022-10-26T10:16:37.830Z,26.01
2022-10-26T10:19:05.695Z,24.86
2022-10-26T10:21:37.786Z,23.57
2022-10-26T10:24:22.863Z,26.55
2022-10-26T10:26:58.739Z,26.00
2022-10-26T10:29:27.269Z,27.99
2022-10-26T10:31:58.769Z,29.53
2022-10-26T10:34:27.175Z,29.62
2022-10-26T10:36:55.687Z,30.82
2022-10-26T10:39:47.517Z,28.95
2022-10-26T10:42:19.613Z,31.58
2022-10-26T10:44:52.595Z,29.11
2022-10-26T10:47:23.480Z,28.83
2022-10-26T10:49:52.981Z,31.00
2022-10-26T10:52:24.698Z,28.94
2022-10-26T10:54:55.008Z,27.44
2022-10-26T10:57:29.093Z,26.75
2022-10-26T11:00:02.236Z,27.46
2022-10-26T11:02:43.546Z,28.71
2022-10-26T11:05:23.483Z,26.44
2022-10-26T11:07:56.615Z,26.91
2022-10-26T11:10:27.378Z,25.57
2022-10-26T11:13:00.167Z,27.42
2022-10-26T11:15:30.003Z,28.89
2022-10-26T11:18:04.060Z,29.10
2022-10-26T11:20:33.966Z,27.96
2022-10-26T11:25:37.915Z,26.52
2022-10-26T11:28:12.907Z,25.26
2022-10-26T11:30:44.506Z,25.96
2022-10-26T11:33:16.541Z,28.11
2022-10-26T11:35:46.699Z,31.89
2022-10-26T11:38:23.937Z,30.91
2022-10-26T11:41:05.306Z,29.95
2022-10-26T11:43:38.982Z,30.52
2022-10-26T11:46:12.742Z,28.16
2022-10-26T11:48:46.074Z,30.57
2022-10-26T11:51:19.444Z,31.87
2022-10-26T11:53:48.870Z,31.97
2022-10-26T11:56:22.755Z,33.00
2022-10-26T11:58:52.340Z,32.67
2022-10-26T12:01:20.774Z,33.08
2022-10-26T12:03:50.328Z,34.49
2022-10-26T12:06:20.796Z,33.75
2022-10-26T12:08:49.860Z,34.05
2022-10-26T12:11:26.496Z,32.76
2022-10-26T12:13:59.559Z,33.66
2022-10-26T12:16:34.558Z,33.08
2022-10-26T12:19:16.932Z,33.72
2022-10-26T12:21:45.245Z,34.73
2022-10-26T12:24:30.650Z,33.42
2022-10-26T12:26:59.144Z,33.46
2022-10-26T12:29:37.164Z,34.16
2022-10-26T12:32:06.710Z,34.97
2022-10-26T12:34:54.818Z,35.56
2022-10-26T12:37:25.046Z,40.16
2022-10-26T12:39:52.928Z,41.99
2022-10-26T12:42:30.703Z,44.23
2022-10-26T12:45:08.836Z,43.05
2022-10-26T12:48:10.561Z,39.13
2022-10-26T12:50:43.786Z,36.36
2022-10-26T12:53:13.586Z,38.21
2022-10-26T12:56:04.170Z,35.36
2022-10-26T12:58:47.193Z,32.79
2022-10-26T13:01:27.494Z,31.38
2022-10-26T13:04:02.895Z,33.93
2022-10-26T13:06:41.366Z,36.18
2022-10-26T13:09:15.230Z,37.14
2022-10-26T13:11:50.536Z,37.74
2022-10-26T13:14:22.861Z,41.90
2022-10-26T13:16:52.514Z,44.00
2022-10-26T13:19:27.454Z,41.61
2022-10-26T13:21:59.079Z,41.14
2022-10-26T13:24:29.433Z,43.31
2022-10-26T13:27:16.131Z,44.21
2022-10-26T13:29:59.116Z,46.04
2022-10-26T13:32:28.657Z,45.54
2022-10-26T13:34:57.839Z,45.35
2022-10-26T13:37:28.041Z,43.89
2022-10-26T13:39:56.507Z,43.25
2022-10-26T13:42:26.101Z,45.84
2022-10-26T13:44:55.343Z,45.40
2022-10-26T13:47:26.799Z,44.28
2022-10-26T13:49:59.920Z,42.49
2022-10-26T13:52:30.199Z,44.87
2022-10-26T13:55:00.584Z,45.10
2022-10-26T13:57:31.221Z,42.39
2022-10-26T14:00:03.052Z,41.30
2022-10-26T14:02:32.591Z,41.21
2022-10-26T14:05:02.571Z,43.23
2022-10-26T14:07:35.163Z,44.63
2022-10-26T14:10:03.450Z,44.34
2022-10-26T14:12:33.988Z,45.30
2022-10-26T14:15:06.904Z,43.98
2022-10-26T14:17:35.939Z,44.25
2022-10-26T14:20:05.839Z,44.57
2022-10-26T14:22:33.987Z,43.57
2022-10-26T14:25:02.441Z,45.99
2022-10-26T14:27:33.105Z,46.88
2022-10-26T14:30:21.688Z,47.51
2022-10-26T14:32:51.376Z,49.07
2022-10-26T14:35:25.473Z,49.42
2022-10-26T14:37:54.846Z,49.68
2022-10-26T14:40:24.700Z,49.75
2022-10-26T14:42:54.811Z,51.83
2022-10-26T14:45:48.159Z,53.61
2022-10-26T14:48:24.718Z,54.53
2022-10-26T14:51:04.695Z,54.92
2022-10-26T14:53:35.704Z,56.53
2022-10-26T14:56:04.603Z,56.88
2022-10-26T14:58:33.712Z,57.56
2022-10-26T15:01:38.180Z,58.01
2022-10-26T15:04:33.591Z,58.81
2022-10-26T15:07:17.205Z,59.55
2022-10-26T15:09:46.089Z,59.99
2022-10-26T15:12:21.593Z,60.46
2022-10-26T15:14:50.681Z,60.54
2022-10-26T15:17:22.040Z,60.80
2022-10-26T15:19:50.519Z,61.30
2022-10-26T15:22:24.098Z,61.58
2022-10-26T15:24:54.566Z,61.81
2022-10-26T15:27:23.236Z,62.01
2022-10-26T15:29:52.166Z,61.74
2022-10-26T15:32:29.877Z,61.84
2022-10-26T15:35:13.174Z,61.86
2022-10-26T15:37:42.997Z,62.29
2022-10-26T15:40:11.411Z,62.10
2022-10-26T15:42:40.226Z,62.25
2022-10-26T15:45:39.793Z,62.65
2022-10-26T15:48:20.799Z,62.76
2022-10-26T15:50:48.890Z,63.35
2022-10-26T15:53:20.444Z,63.72
2022-10-26T15:55:48.713Z,64.04
2022-10-26T15:58:17.561Z,64.72
2022-10-26T16:00:48.346Z,65.35
2022-10-26T16:03:18.582Z,65.74
2022-10-26T16:05:46.838Z,66.41
2022-10-26T16:08:18.041Z,66.98
2022-10-26T16:10:48.596Z,67.48
2022-10-26T16:13:16.616Z,67.90
2022-10-26T16:15:44.686Z,68.14
2022-10-26T16:18:12.540Z,68.78
2022-10-26T16:20:40.704Z,68.85
2022-10-26T16:23:08.808Z,69.30
2022-10-26T16:25:41.570Z,70.01
2022-10-26T16:28:11.856Z,70.86
2022-10-26T16:33:08.664Z,72.25
2022-10-26T16:35:36.593Z,73.04
2022-10-26T16:38:04.476Z,73.65
2022-10-26T16:40:38.461Z,74.53
2022-10-26T16:43:06.471Z,74.61
2022-10-26T16:45:35.895Z,75.00
2022-10-26T16:48:06.922Z,75.93
2022-10-26T16:50:36.503Z,76.25
2022-10-26T16:53:04.552Z,76.36
2022-10-26T16:55:32.559Z,76.19
2022-10-26T16:58:00.475Z,76.17
2022-10-26T17:00:28.293Z,76.22
2022-10-26T17:02:57.681Z,76.40
2022-10-26T17:05:25.625Z,76.08
2022-10-26T17:07:53.673Z,75.54
2022-10-26T17:10:21.698Z,75.52
2022-10-26T17:12:49.995Z,75.52
2022-10-26T17:15:19.951Z,75.51
2022-10-26T17:17:49.371Z,75.45
2022-10-26T17:20:18.549Z,75.76
2022-10-26T17:22:46.444Z,75.99
2022-10-26T17:25:14.544Z,75.77
2022-10-26T17:27:46.395Z,76.30
2022-10-26T17:30:15.762Z,75.97
2022-10-26T17:32:43.927Z,76.17
2022-10-26T17:35:11.822Z,75.98
2022-10-26T17:37:41.357Z,76.13
2022-10-26T17:40:09.807Z,76.28
2022-10-26T17:42:37.657Z,76.05
2022-10-26T17:45:05.954Z,76.31
2022-10-26T17:47:33.783Z,76.14
2022-10-26T17:50:03.365Z,75.98
2022-10-26T17:52:31.293Z,76.22
2022-10-26T17:55:02.652Z,76.05
2022-10-26T17:57:31.127Z,76.53
2022-10-26T17:59:58.973Z,76.67
2022-10-26T18:02:27.325Z,76.88
2022-10-26T18:04:55.856Z,76.95
2022-10-26T18:07:23.649Z,77.21
2022-10-26T18:09:51.690Z,77.15
2022-10-26T18:12:20.873Z,77.57
2022-10-26T18:14:48.917Z,77.17
2022-10-26T18:17:16.814Z,77.81
2022-10-26T18:19:44.681Z,78.21
2022-10-26T18:22:12.740Z,78.22
2022-10-26T18:24:40.654Z,78.72
2022-10-26T18:27:08.500Z,78.73
2022-10-26T18:29:39.748Z,78.78
2022-10-26T18:32:08.048Z,78.75
2022-10-26T18:34:35.869Z,79.22
2022-10-26T18:37:03.709Z,79.94
2022-10-26T18:39:31.606Z,80.56
2022-10-26T18:41:59.560Z,80.44
2022-10-26T18:44:27.675Z,80.82
2022-10-26T18:46:56.912Z,80.81
2022-10-26T18:49:25.976Z,80.92
2022-10-26T18:51:53.865Z,81.21
2022-10-26T18:54:21.905Z,81.50
2022-10-26T18:56:49.901Z,81.91
2022-10-26T18:59:17.772Z,82.13
2022-10-26T19:01:47.170Z,82.60
2022-10-26T19:04:16.549Z,82.16
2022-10-26T19:06:47.216Z,82.43
2022-10-26T19:09:15.814Z,82.59
2022-10-26T19:11:43.632Z,82.99
2022-10-26T19:14:12.339Z,83.54
2022-10-26T19:16:48.194Z,83.88
2022-10-26T19:19:18.084Z,84.28
2022-10-26T19:21:46.280Z,84.65
2022-10-26T19:24:15.080Z,84.64
2022-10-26T19:26:44.075Z,84.91
2022-10-26T19:29:14.407Z,84.97
2022-10-26T19:31:42.580Z,85.19
2022-10-26T19:34:10.993Z,85.41
2022-10-26T19:36:44.039Z,85.46
2022-10-26T19:39:12.155Z,85.94
2022-10-26T19:41:40.055Z,86.20
2022-10-26T19:44:08.377Z,86.57
2022-10-26T19:46:36.204Z,86.56
2022-10-26T19:49:04.392Z,86.96
2022-10-26T19:51:33.058Z,87.09
2022-10-26T19:54:04.059Z,87.31
2022-10-26T19:56:32.822Z,87.46
2022-10-26T19:59:01.508Z,87.58
2022-10-26T20:01:29.622Z,87.93
2022-10-26T20:03:57.622Z,87.86
2022-10-26T20:06:25.617Z,87.71
2022-10-26T20:08:53.716Z,87.80
2022-10-26T20:11:23.061Z,87.97
2022-10-26T20:13:51.113Z,87.97
2022-10-26T20:16:19.071Z,88.37
2022-10-26T20:18:48.882Z,88.63
2022-10-26T20:21:17.931Z,88.65
2022-10-26T20:23:46.027Z,88.83
2022-10-26T20:26:18.418Z,89.25
2022-10-26T20:28:50.788Z,89.03
2022-10-26T20:31:19.411Z,89.34
2022-10-26T20:33:50.079Z,89.32
2022-10-26T20:36:18.271Z,89.71
2022-10-26T20:38:46.522Z,89.92
2022-10-26T20:41:15.181Z,90.20
2022-10-26T20:43:43.700Z,90.31
2022-10-26T20:46:18.387Z,90.33
2022-10-26T20:48:46.822Z,90.40
2022-10-26T20:51:17.248Z,90.27
2022-10-26T20:53:51.141Z,90.54
2022-10-26T20:56:22.873Z,90.39
2022-10-26T20:58:52.617Z,90.68
2022-10-26T21:01:24.662Z,90.52
2022-10-26T21:03:52.779Z,90.67
2022-10-26T21:06:20.992Z,90.76
2022-10-26T21:08:49.199Z,90.85
2022-10-26T21:11:17.041Z,91.40
2022-10-26T21:13:45.465Z,90.92
2022-10-26T21:16:14.067Z,91.26
2022-10-26T21:18:43.333Z,90.74
2022-10-26T21:21:11.577Z,90.96
2022-10-26T21:23:40.375Z,91.41
2022-10-26T21:26:08.313Z,91.49
2022-10-26T21:28:36.963Z,91.66
2022-10-26T21:31:06.034Z,91.49
2022-10-26T21:33:34.417Z,91.55
2022-10-26T21:36:04.845Z,92.01
2022-10-26T21:38:33.510Z,91.87
2022-10-26T21:41:05.163Z,91.55
2022-10-26T21:43:33.310Z,91.44
2022-10-26T21:46:04.692Z,91.76
2022-10-26T21:48:33.526Z,91.92
2022-10-26T21:51:03.479Z,91.93
2022-10-26T21:53:31.389Z,92.27
2022-10-26T21:56:02.603Z,91.96
2022-10-26T21:58:30.895Z,92.40
2022-10-26T22:01:04.969Z,92.38
2022-10-26T22:03:33.156Z,92.76
2022-10-26T22:06:01.098Z,92.92
2022-10-26T22:08:30.635Z,92.99
2022-10-26T22:10:58.690Z,93.02
2022-10-26T22:13:26.663Z,92.65
2022-10-26T22:16:02.000Z,93.06
2022-10-26T22:18:30.114Z,92.77
2022-10-26T22:20:58.813Z,93.05
2022-10-26T22:23:27.036Z,93.24
2022-10-26T22:26:01.579Z,93.46
2022-10-26T22:28:32.055Z,93.44
2022-10-26T22:31:04.156Z,93.70
2022-10-26T22:33:32.272Z,93.22
2022-10-26T22:36:04.574Z,92.42
2022-10-26T22:38:32.640Z,91.75
2022-10-26T22:41:01.905Z,90.92
2022-10-26T22:43:30.123Z,90.31
2022-10-26T22:46:01.676Z,90.22
2022-10-26T22:48:30.078Z,90.13
2022-10-26T22:50:58.106Z,90.31
2022-10-26T22:53:26.319Z,90.19
2022-10-26T22:55:54.161Z,90.50
2022-10-26T22:58:23.388Z,90.46
2022-10-26T23:00:51.498Z,90.30
2022-10-26T23:03:19.465Z,90.13
2022-10-26T23:05:47.712Z,90.47
2022-10-26T23:08:15.811Z,90.49
2022-10-26T23:10:43.720Z,90.34
2022-10-26T23:13:11.962Z,90.63
2022-10-26T23:15:41.168Z,90.82
2022-10-26T23:18:09.013Z,91.35
2022-10-26T23:20:37.037Z,91.46
2022-10-26T23:23:04.908Z,91.93
2022-10-26T23:25:32.978Z,92.06
2022-10-26T23:28:00.922Z,92.42
2022-10-26T23:30:28.847Z,92.77
2022-10-26T23:32:58.146Z,93.25
2022-10-26T23:35:26.083Z,92.96
2022-10-26T23:37:54.200Z,93.47
2022-10-26T23:40:22.123Z,93.95
2022-10-26T23:42:50.359Z,93.67
2022-10-26T23:45:18.599Z,94.11
2022-10-26T23:47:46.665Z,94.05
2022-10-26T23:50:16.789Z,94.06
2022-10-26T23:52:47.276Z,94.09
2022-10-26T23:55:15.761Z,93.73
2022-10-26T23:57:44.053Z,94.00
